Time;durP1;ratioP1;P1;durP2;ratioP2;P2;SDS_P1;SDS_P2;PMS_P1;PMS_P2;Temp;Humidity;BMP_temperature;BMP_pressure;BME280_temperature;BME280_humidity;BME280_pressure;Samples;Min_cycle;Max_cycle;Signal;HPM_P1;HPM_P2
2022/10/01 17:27:23;;;;;;;690.67;454.33;;;14.40;99.90;;;;;;4998479;28;20688;-78
2022/10/01 17:29:51;;;;;;;690.85;446.98;;;14.40;99.90;;;;;;4998831;28;20204;-76
2022/10/01 17:32:17;;;;;;;690.42;451.00;;;14.40;99.90;;;;;;5001540;28;20695;-76
2022/10/01 17:34:44;;;;;;;693.92;480.48;;;14.30;99.90;;;;;;4996376;28;20196;-79
2022/10/01 17:37:11;;;;;;;693.58;476.02;;;14.40;99.90;;;;;;5005637;28;20712;-76
2022/10/01 17:39:38;;;;;;;696.30;487.30;;;14.40;99.90;;;;;;5003565;28;20200;-79
2022/10/01 17:42:05;;;;;;;697.08;484.90;;;14.40;99.90;;;;;;5005679;28;20676;-76
2022/10/01 17:44:33;;;;;;;699.67;476.75;;;14.40;99.90;;;;;;5012059;28;20205;-76
2022/10/01 17:46:59;;;;;;;695.25;482.20;;;14.40;99.90;;;;;;5015134;28;20199;-76
2022/10/01 17:49:26;;;;;;;690.42;447.52;;;14.30;99.90;;;;;;5004839;28;20209;-78
2022/10/01 17:51:53;;;;;;;693.10;469.08;;;14.40;99.90;;;;;;5011502;28;20222;-75
2022/10/01 17:54:19;;;;;;;698.05;479.13;;;14.40;99.90;;;;;;5010105;28;20233;-78
2022/10/01 17:56:46;;;;;;;689.80;452.83;;;14.30;99.90;;;;;;5004591;28;20202;-79
2022/10/01 17:59:13;;;;;;;690.72;465.85;;;14.40;99.90;;;;;;5012168;28;20203;-76
2022/10/01 18:01:41;;;;;;;688.75;465.95;;;14.40;99.90;;;;;;5009562;28;20202;-81
2022/10/01 18:04:11;;;;;;;694.35;477.58;;;14.30;99.90;;;;;;5005146;28;20208;-77
2022/10/01 18:06:38;;;;;;;698.80;496.92;;;14.40;99.90;;;;;;5002792;28;20282;-77
2022/10/01 18:09:05;;;;;;;690.90;463.02;;;14.30;99.90;;;;;;5005024;28;20206;-77
2022/10/01 18:11:32;;;;;;;693.15;474.58;;;14.30;99.90;;;;;;4997206;28;20659;-76
2022/10/01 18:13:59;;;;;;;689.05;455.45;;;14.30;99.90;;;;;;5006138;28;20199;-76
2022/10/01 18:16:26;;;;;;;694.70;477.40;;;14.30;99.90;;;;;;5001415;28;20223;-76
2022/10/01 18:18:59;;;;;;;695.60;475.60;;;14.30;99.90;;;;;;5000497;28;20221;-76
2022/10/01 18:21:26;;;;;;;695.17;484.35;;;14.30;99.90;;;;;;5002273;28;20203;-75
2022/10/01 18:23:54;;;;;;;691.75;468.30;;;14.30;99.90;;;;;;5001897;28;20246;-76
2022/10/01 18:26:20;;;;;;;691.47;467.20;;;14.30;99.90;;;;;;4994955;28;20191;-79
2022/10/01 18:28:48;;;;;;;693.90;476.38;;;14.30;99.90;;;;;;5007209;28;20202;-76
2022/10/01 18:31:22;;;;;;;690.55;454.27;;;14.20;99.90;;;;;;5010680;28;20219;-76
2022/10/01 18:33:51;;;;;;;695.17;478.30;;;14.20;99.90;;;;;;5005628;28;20206;-77
2022/10/01 18:36:26;;;;;;;688.10;449.17;;;14.20;99.90;;;;;;5008212;28;20203;-76
2022/10/01 18:39:02;;;;;;;692.53;470.17;;;14.20;99.90;;;;;;5002764;28;20663;-79
2022/10/01 18:41:36;;;;;;;686.40;444.02;;;14.20;99.90;;;;;;5002350;28;20196;-77
2022/10/01 18:44:03;;;;;;;691.17;471.17;;;14.20;99.90;;;;;;5008103;28;20200;-79
2022/10/01 18:46:42;;;;;;;689.90;453.42;;;14.20;99.90;;;;;;5000557;28;20253;-76
2022/10/01 18:49:24;;;;;;;695.67;473.67;;;14.10;99.90;;;;;;5008270;28;20196;-77
2022/10/01 18:52:04;;;;;;;691.70;467.27;;;14.10;99.90;;;;;;5001981;28;21527;-78
2022/10/01 18:55:09;;;;;;;691.55;467.25;;;14.10;99.90;;;;;;5002942;28;20202;-77
2022/10/01 18:57:47;;;;;;;687.67;449.17;;;14.10;99.90;;;;;;5006480;28;20278;-76
2022/10/01 19:00:16;;;;;;;688.45;446.50;;;14.10;99.90;;;;;;5007199;28;20196;-76
2022/10/01 19:03:08;;;;;;;695.40;466.95;;;14.10;99.90;;;;;;5001373;28;20201;-76
2022/10/01 19:06:10;;;;;;;684.30;432.48;;;14.10;99.90;;;;;;5010585;28;20199;-75
2022/10/01 19:08:58;;;;;;;688.60;448.38;;;14.10;99.90;;;;;;4994795;28;20274;-75
2022/10/01 19:11:36;;;;;;;692.58;465.63;;;14.10;99.90;;;;;;4999721;28;20231;-75
2022/10/01 19:14:22;;;;;;;688.25;458.98;;;14.10;99.90;;;;;;5003921;28;20211;-76
2022/10/01 19:16:57;;;;;;;690.45;455.52;;;14.10;99.90;;;;;;5003479;28;20213;-76
2022/10/01 19:19:32;;;;;;;689.58;459.15;;;14.10;99.90;;;;;;4999029;28;20203;-77
2022/10/01 19:22:01;;;;;;;692.05;458.55;;;14.10;99.90;;;;;;5001158;28;20202;-75
2022/10/01 19:24:44;;;;;;;691.38;466.85;;;14.10;99.90;;;;;;5007652;28;20204;-76
2022/10/01 19:27:23;;;;;;;686.40;440.65;;;14.00;99.90;;;;;;5000245;28;20207;-73
2022/10/01 19:30:02;;;;;;;688.92;451.48;;;14.00;99.90;;;;;;5012711;28;20674;-76
2022/10/01 19:32:36;;;;;;;687.70;440.80;;;14.00;99.90;;;;;;5005484;28;20226;-74
2022/10/01 19:35:11;;;;;;;692.97;459.92;;;14.00;99.90;;;;;;4996664;28;20311;-75
2022/10/01 19:37:42;;;;;;;689.55;459.30;;;14.00;99.90;;;;;;5005865;28;20584;-75
2022/10/01 19:40:20;;;;;;;692.38;461.17;;;14.00;99.90;;;;;;5005968;28;20189;-74
2022/10/01 19:42:52;;;;;;;690.20;458.33;;;14.00;99.90;;;;;;5001413;28;20279;-76
2022/10/01 19:45:24;;;;;;;692.08;471.45;;;14.00;99.90;;;;;;5006633;28;20200;-74
2022/10/01 19:48:01;;;;;;;688.33;451.13;;;14.00;99.90;;;;;;5004406;28;20197;-73
2022/10/01 19:50:32;;;;;;;693.25;465.35;;;14.00;99.90;;;;;;5004346;28;20291;-75
2022/10/01 19:53:02;;;;;;;690.45;453.23;;;14.00;99.90;;;;;;4999498;28;20250;-77
2022/10/01 19:55:35;;;;;;;694.20;458.80;;;14.00;99.90;;;;;;4996304;28;20201;-76
2022/10/01 19:58:09;;;;;;;690.58;459.95;;;14.00;99.90;;;;;;5002165;28;20200;-77
2022/10/01 20:00:37;;;;;;;691.00;459.58;;;14.00;99.90;;;;;;5002556;28;20195;-75
2022/10/01 20:03:10;;;;;;;691.70;460.25;;;14.00;99.90;;;;;;4999019;28;21547;-76
2022/10/01 20:05:45;;;;;;;693.80;456.13;;;14.00;99.90;;;;;;4995545;28;20723;-79
2022/10/01 20:08:23;;;;;;;690.78;460.80;;;14.00;99.90;;;;;;4997560;28;20207;-76
2022/10/01 20:10:54;;;;;;;694.17;461.23;;;14.00;99.90;;;;;;5009500;28;20226;-78
2022/10/01 20:13:32;;;;;;;697.55;481.60;;;14.00;99.90;;;;;;5000659;28;20218;-77
2022/10/01 20:16:08;;;;;;;691.50;462.98;;;14.00;99.90;;;;;;5003721;28;20629;-76
2022/10/01 20:18:42;;;;;;;694.95;465.25;;;14.00;99.90;;;;;;5006059;28;20196;-76
2022/10/01 20:21:28;;;;;;;690.35;459.98;;;14.00;99.90;;;;;;5004762;28;20188;-75
2022/10/01 20:24:03;;;;;;;691.03;456.35;;;14.00;99.90;;;;;;5000204;28;20197;-76
2022/10/01 20:26:39;;;;;;;688.47;454.95;;;14.00;99.90;;;;;;5010186;28;20210;-79
2022/10/01 20:29:18;;;;;;;684.78;445.73;;;13.90;99.90;;;;;;5004633;28;20200;-75
2022/10/01 20:31:53;;;;;;;688.92;454.90;;;13.90;99.90;;;;;;5007451;28;20224;-76
2022/10/01 20:34:28;;;;;;;691.95;456.83;;;13.90;99.90;;;;;;5009180;28;20198;-74
2022/10/01 20:37:08;;;;;;;693.00;461.05;;;13.90;99.90;;;;;;5004557;28;20586;-75
2022/10/01 20:39:39;;;;;;;691.72;455.65;;;13.90;99.90;;;;;;5005714;28;20302;-81
2022/10/01 20:42:14;;;;;;;689.15;452.77;;;13.90;99.90;;;;;;5003497;28;20204;-74
2022/10/01 20:44:42;;;;;;;687.40;428.67;;;13.90;99.90;;;;;;5007782;28;20253;-74
2022/10/01 20:47:19;;;;;;;694.58;464.63;;;13.90;99.90;;;;;;5007762;28;20202;-76
2022/10/01 20:49:52;;;;;;;691.00;454.58;;;13.90;99.90;;;;;;5006606;28;20195;-75
2022/10/01 20:52:26;;;;;;;692.17;458.25;;;13.90;99.90;;;;;;5005404;28;20216;-76
2022/10/01 20:55:02;;;;;;;686.88;444.08;;;13.90;99.90;;;;;;5006576;28;20536;-76
2022/10/01 20:57:34;;;;;;;688.20;445.90;;;13.90;99.90;;;;;;4996966;28;20206;-80
2022/10/01 21:00:06;;;;;;;690.88;458.15;;;13.80;99.90;;;;;;5012472;28;20200;-75
2022/10/01 21:02:39;;;;;;;690.17;438.42;;;13.80;99.90;;;;;;5008438;28;20297;-76
2022/10/01 21:05:11;;;;;;;687.53;452.52;;;13.80;99.90;;;;;;5009164;28;20656;-75
2022/10/01 21:07:47;;;;;;;686.28;421.50;;;13.80;99.90;;;;;;5000303;28;20200;-75
2022/10/01 21:10:25;;;;;;;690.20;452.00;;;13.80;99.90;;;;;;5008987;28;20199;-78
2022/10/01 21:13:00;;;;;;;690.38;446.58;;;13.80;99.90;;;;;;5013895;28;20233;-76
2022/10/01 21:15:38;;;;;;;690.47;450.25;;;13.80;99.90;;;;;;5008903;28;20203;-77
2022/10/01 21:18:11;;;;;;;693.22;453.70;;;13.80;99.90;;;;;;5009035;28;20764;-78
2022/10/01 21:20:47;;;;;;;691.70;446.50;;;13.80;99.90;;;;;;5006197;28;20191;-75
2022/10/01 21:23:29;;;;;;;689.22;446.15;;;13.80;99.90;;;;;;5008411;28;20207;-76
2022/10/01 21:26:07;;;;;;;688.85;442.83;;;13.80;99.90;;;;;;5003418;28;20192;-78
2022/10/01 21:28:54;;;;;;;699.33;468.17;;;13.70;99.90;;;;;;5007488;28;20204;-76
2022/10/01 21:31:35;;;;;;;685.92;423.27;;;13.70;99.90;;;;;;5009365;28;20200;-75
2022/10/01 21:34:08;;;;;;;683.42;429.23;;;13.70;99.90;;;;;;5007203;28;20198;-78
2022/10/01 21:36:38;;;;;;;688.17;455.13;;;13.70;99.90;;;;;;5006746;28;20197;-81
2022/10/01 21:39:11;;;;;;;686.70;430.33;;;13.70;99.90;;;;;;5005592;28;20204;-75
2022/10/01 21:41:56;;;;;;;694.08;459.20;;;13.70;99.90;;;;;;4998613;28;20211;-78
2022/10/01 21:44:45;;;;;;;689.33;449.48;;;13.70;99.90;;;;;;5011812;28;20203;-75
2022/10/01 21:47:20;;;;;;;692.30;445.35;;;13.70;99.90;;;;;;5005450;28;20194;-78
2022/10/01 21:50:00;;;;;;;684.33;432.05;;;13.70;99.90;;;;;;5006314;28;20195;-76
2022/10/01 21:52:36;;;;;;;688.55;435.15;;;13.70;99.90;;;;;;5008998;28;20218;-79
2022/10/01 21:55:25;;;;;;;690.78;457.23;;;13.70;99.90;;;;;;5002708;28;20195;-75
2022/10/01 21:58:07;;;;;;;686.40;443.33;;;13.70;99.90;;;;;;5006353;28;20230;-75
2022/10/01 22:00:36;;;;;;;690.33;444.60;;;13.70;99.90;;;;;;5007146;28;20203;-77
2022/10/01 22:03:11;;;;;;;690.42;445.02;;;13.70;99.90;;;;;;5010807;28;20203;-82
2022/10/01 22:05:48;;;;;;;690.85;452.42;;;13.70;99.90;;;;;;5005286;28;20554;-76
2022/10/01 22:08:27;;;;;;;687.60;444.10;;;13.60;99.90;;;;;;5005130;28;20626;-76
2022/10/01 22:11:00;;;;;;;686.83;440.77;;;13.60;99.90;;;;;;5006464;28;20614;-75
2022/10/01 22:13:28;;;;;;;688.97;446.88;;;13.60;99.90;;;;;;5005994;28;20698;-75
2022/10/01 22:16:01;;;;;;;690.38;444.27;;;13.60;99.90;;;;;;5000805;28;20265;-78
2022/10/01 22:18:35;;;;;;;692.30;451.00;;;13.70;99.90;;;;;;5007258;28;20295;-75
2022/10/01 22:21:06;;;;;;;685.65;433.38;;;13.60;99.90;;;;;;5007984;28;20198;-75
2022/10/01 22:23:37;;;;;;;690.33;434.15;;;13.60;99.90;;;;;;5007548;28;20262;-75
2022/10/01 22:26:11;;;;;;;686.38;426.63;;;13.60;99.90;;;;;;5009715;28;20228;-75
2022/10/01 22:28:41;;;;;;;674.08;442.52;;;13.60;99.90;;;;;;5005958;28;20225;-75
2022/10/01 22:31:15;;;;;;;674.42;441.27;;;13.60;99.90;;;;;;5004159;28;20619;-76
2022/10/01 22:33:48;;;;;;;680.35;457.67;;;13.60;99.90;;;;;;5000154;28;20222;-76
2022/10/01 22:36:20;;;;;;;674.80;438.95;;;13.60;99.90;;;;;;5003045;28;20199;-77
2022/10/01 22:38:52;;;;;;;677.45;447.98;;;13.60;99.90;;;;;;5002719;28;20202;-77
2022/10/01 22:41:26;;;;;;;674.80;440.83;;;13.60;99.90;;;;;;5005320;28;20595;-77
2022/10/01 22:43:53;;;;;;;675.30;442.83;;;13.60;99.90;;;;;;5006057;28;20286;-75
2022/10/01 22:46:42;;;;;;;677.85;445.65;;;13.60;99.90;;;;;;5001580;28;20294;-75
2022/10/01 22:49:21;;;;;;;676.80;447.50;;;13.50;99.90;;;;;;5004012;28;20203;-75
2022/10/01 22:52:00;;;;;;;676.58;452.98;;;13.50;99.90;;;;;;4999332;28;20697;-75
2022/10/01 22:54:42;;;;;;;672.30;432.40;;;13.50;99.90;;;;;;5002717;28;20216;-78
2022/10/01 22:57:30;;;;;;;674.58;432.30;;;13.50;99.90;;;;;;5002697;28;20199;-79
2022/10/01 23:00:04;;;;;;;678.95;448.75;;;13.50;99.90;;;;;;5006812;28;20199;-76
2022/10/01 23:02:38;;;;;;;672.22;436.10;;;13.50;99.90;;;;;;5008765;28;20218;-75
2022/10/01 23:05:13;;;;;;;677.00;433.60;;;13.50;99.90;;;;;;5006707;28;20233;-79
2022/10/01 23:07:50;;;;;;;677.25;448.70;;;13.50;99.90;;;;;;5001786;28;20203;-76
2022/10/01 23:10:21;;;;;;;677.22;439.52;;;13.50;99.90;;;;;;5000066;28;20206;-75
2022/10/01 23:12:58;;;;;;;681.78;442.70;;;13.50;99.90;;;;;;4999108;28;20223;-75
2022/10/01 23:15:36;;;;;;;686.88;440.95;;;13.50;99.90;;;;;;5003754;28;20217;-76
2022/10/01 23:18:15;;;;;;;694.65;445.92;;;13.50;99.90;;;;;;5001897;28;20829;-76
2022/10/01 23:21:04;;;;;;;688.75;433.80;;;13.50;99.90;;;;;;5000701;28;20202;-77
2022/10/01 23:23:32;;;;;;;689.65;439.35;;;13.50;99.90;;;;;;5008129;28;20223;-76
2022/10/01 23:26:18;;;;;;;689.17;436.92;;;13.50;99.90;;;;;;5010572;28;20201;-76
2022/10/01 23:29:02;;;;;;;688.63;430.10;;;13.50;99.90;;;;;;5006038;28;20222;-77
2022/10/01 23:31:38;;;;;;;689.90;438.75;;;13.50;99.90;;;;;;4999315;28;20717;-79
2022/10/01 23:34:23;;;;;;;687.50;436.33;;;13.40;99.90;;;;;;5001874;28;20223;-74
2022/10/01 23:36:57;;;;;;;684.45;438.58;;;13.40;99.90;;;;;;5003423;28;20237;-76
2022/10/01 23:39:36;;;;;;;689.53;443.10;;;13.40;99.90;;;;;;4996859;28;20256;-75
2022/10/01 23:42:14;;;;;;;690.00;443.83;;;13.40;99.90;;;;;;5007618;28;20250;-87
2022/10/01 23:44:48;;;;;;;683.83;436.40;;;13.40;99.90;;;;;;4996037;28;20200;-76
2022/10/01 23:47:21;;;;;;;687.67;441.95;;;13.40;99.90;;;;;;5006590;28;20188;-76
2022/10/01 23:49:53;;;;;;;687.47;446.17;;;13.40;99.90;;;;;;5005303;28;20216;-78
2022/10/01 23:52:29;;;;;;;682.75;442.80;;;13.40;99.90;;;;;;5003844;28;20197;-78
2022/10/01 23:56:47;;;;;;;670.70;455.55;;;13.40;99.90;;;;;;5007024;28;20587;-76
2022/10/01 23:57:51;;;;;;;687.45;438.33;;;13.40;99.90;;;;;;5006651;28;20683;-76
